Weather History for Casa Grande, AZ

Change the Weather History Date:

Monday, September 16, 2013

  Actual Average Record
Temperature  
Mean Temperature 93 °F -  
Max Temperature 102 °F 95 °F 105 °F (2000)
Min Temperature 84 °F 68 °F 60 °F (2006)
Cooling Degree Days 28    
Growing Degree Days 43 (Base 50)    
Moisture  
Dew Point 56 °F    
Average Humidity 30    
Maximum Humidity 40    
Minimum Humidity 20    
Precipitation  
Precipitation 0.00 in - - ()
Sea Level Pressure  
Sea Level Pressure 29.78 in    
Wind  
Wind Speed 9 mph (ENE)    
Max Wind Speed 17 mph    
Max Gust Speed 21 mph    
Visibility 10 miles    
Events      
Averages and records for this station are not official NWS values.
T = Trace of Precipitation, MM = Missing Value Source: NWS Daily Summary

Daily Weather History Graph

Daily Weather History Graph

Search for Another Location

Airport:

Trip Planner

Search our weather history database for the weather conditions in past years. The results will help you decide how hot, cold, wet, or windy it might be!

Date:

Astronomy

Sep. 16, 2013 Rise Set
Actual Time 6:11 AM MST 6:31 PM MST
Civil Twilight 5:46 AM MST 6:56 PM MST
Nautical Twilight 5:17 AM MST 7:25 PM MST
Astronomical Twilight 4:48 AM MST 7:54 PM MST
Moon 4:37 PM MST (9/16) 3:09 AM MST (9/16)
Length of Visible Light 13h 09m
Length of Day
12h 19m
Waxing Gibbous, 91% of the Moon is Illuminated
Sep 16
Waxing Gibbous
Sep 19
Full
Sep 26
Last Quarter
Oct 4
New
Oct 11
First Quarter

Hourly Weather History & Observations

Time (MST) Temp. Heat Index Dew Point Humidity Pressure Visibility Wind Dir Wind Speed Gust Speed Precip Events Conditions
12:15 AM 84.2 °F 83.0 °F 55.4 °F 37% 29.76 in 10.0 mi NNE 6.9 mph - N/A   Clear
12:35 AM 84.2 °F 83.0 °F 55.4 °F 37% 29.77 in 10.0 mi Calm Calm - N/A   Partly Cloudy
12:55 AM 84.2 °F 83.5 °F 57.2 °F 40% 29.78 in 10.0 mi Calm Calm - N/A   Partly Cloudy
1:15 AM 86.0 °F 84.2 °F 53.6 °F 33% 29.78 in 10.0 mi North 3.5 mph - N/A   Clear
1:35 AM 86.0 °F 84.2 °F 53.6 °F 33% 29.77 in 10.0 mi NE 3.5 mph - N/A   Scattered Clouds
1:55 AM 87.8 °F 85.7 °F 53.6 °F 31% 29.78 in 10.0 mi East 10.4 mph - N/A   Clear
2:15 AM 84.2 °F 82.8 °F 53.6 °F 35% 29.78 in 10.0 mi ESE 5.8 mph - N/A   Scattered Clouds
2:35 AM 86.0 °F 84.2 °F 53.6 °F 33% 29.77 in 10.0 mi East 8.1 mph - N/A   Scattered Clouds
2:55 AM 87.8 °F 85.7 °F 53.6 °F 31% 29.77 in 10.0 mi East 10.4 mph - N/A   Clear
3:15 AM 87.8 °F 86.1 °F 55.4 °F 33% 29.77 in 10.0 mi ENE 12.7 mph - N/A   Clear
3:35 AM 87.8 °F 86.1 °F 55.4 °F 33% 29.77 in 10.0 mi ENE 15.0 mph - N/A   Clear
3:55 AM 87.8 °F 86.1 °F 55.4 °F 33% 29.78 in 10.0 mi ENE 15.0 mph - N/A   Mostly Cloudy
4:15 AM 87.8 °F 86.5 °F 57.2 °F 35% 29.79 in 10.0 mi East 11.5 mph - N/A   Mostly Cloudy
4:35 AM 86.0 °F 84.9 °F 57.2 °F 37% 29.79 in 10.0 mi ENE 10.4 mph - N/A   Partly Cloudy
4:55 AM 84.2 °F 83.5 °F 57.2 °F 40% 29.79 in 10.0 mi ENE 9.2 mph - N/A   Clear
5:15 AM 84.2 °F 83.5 °F 57.2 °F 40% 29.80 in 10.0 mi NE 8.1 mph - N/A   Clear
5:35 AM 84.2 °F 83.5 °F 57.2 °F 40% 29.80 in 10.0 mi ENE 8.1 mph - N/A   Partly Cloudy
5:55 AM 84.2 °F 83.5 °F 57.2 °F 40% 29.81 in 10.0 mi ENE 9.2 mph - N/A   Partly Cloudy
6:15 AM 84.2 °F 83.5 °F 57.2 °F 40% 29.82 in 10.0 mi ENE 11.5 mph - N/A   Partly Cloudy
6:35 AM 84.2 °F 83.5 °F 57.2 °F 40% 29.82 in 10.0 mi ENE 11.5 mph - N/A   Partly Cloudy
6:55 AM 86.0 °F 84.9 °F 57.2 °F 37% 29.83 in 10.0 mi ENE 13.8 mph - N/A   Partly Cloudy
7:15 AM 86.0 °F 85.4 °F 59.0 °F 40% 29.83 in 10.0 mi ENE 15.0 mph - N/A   Clear
7:35 AM 87.8 °F 87.1 °F 59.0 °F 38% 29.83 in 10.0 mi ENE 17.3 mph - N/A   Clear
7:55 AM 87.8 °F 87.1 °F 59.0 °F 38% 29.83 in 10.0 mi ENE 16.1 mph 20.7 mph N/A   Clear
8:15 AM 89.6 °F 88.9 °F 59.0 °F 36% 29.84 in 10.0 mi ENE 16.1 mph - N/A   Clear
8:35 AM 89.6 °F 88.9 °F 59.0 °F 36% 29.84 in 10.0 mi ENE 16.1 mph - N/A   Clear
8:55 AM 91.4 °F 91.4 °F 60.8 °F 36% 29.85 in 10.0 mi East 15.0 mph - N/A   Clear
9:15 AM 91.4 °F 91.4 °F 60.8 °F 36% 29.85 in 10.0 mi ENE 16.1 mph - N/A   Clear
9:35 AM 93.2 °F 93.3 °F 60.8 °F 34% 29.85 in 9.0 mi East 13.8 mph - N/A   Clear
9:55 AM 95.0 °F 94.4 °F 59.0 °F 30% 29.85 in 10.0 mi East 15.0 mph - N/A   Clear
10:15 AM 95.0 °F 94.4 °F 59.0 °F 30% 29.85 in 10.0 mi East 13.8 mph 20.7 mph N/A   Clear
10:35 AM 96.8 °F 96.2 °F 59.0 °F 28% 29.85 in 10.0 mi East 13.8 mph - N/A   Clear
10:55 AM 96.8 °F 97.1 °F 60.8 °F 30% 29.85 in 10.0 mi ESE 13.8 mph 17.3 mph N/A   Clear
11:15 AM 96.8 °F 96.2 °F 59.0 °F 28% 29.84 in 10.0 mi ENE 12.7 mph 16.1 mph N/A   Clear
11:35 AM 98.6 °F 98.5 °F 59.0 °F 27% 29.84 in 10.0 mi East 10.4 mph - N/A   Clear
11:55 AM 98.6 °F 98.5 °F 59.0 °F 27% 29.83 in 10.0 mi ESE 6.9 mph 18.4 mph N/A   Clear
12:15 PM 100.4 °F 99.7 °F 57.2 °F 24% 29.82 in 10.0 mi ENE 11.5 mph - N/A   Clear
12:35 PM 100.4 °F 99.7 °F 57.2 °F 24% 29.82 in 10.0 mi ENE 10.4 mph - N/A   Clear
12:55 PM 100.4 °F 99.7 °F 57.2 °F 24% 29.80 in 10.0 mi ENE 12.7 mph 19.6 mph N/A   Clear
1:15 PM 100.4 °F 99.7 °F 57.2 °F 24% 29.79 in 10.0 mi NE 5.8 mph - N/A   Clear
1:35 PM 100.4 °F 98.8 °F 55.4 °F 22% 29.78 in 10.0 mi East 10.4 mph 16.1 mph N/A   Clear
1:55 PM 102.2 °F 101.4 °F 57.2 °F 22% 29.77 in 10.0 mi NE 8.1 mph - N/A   Clear
2:15 PM 102.2 °F 100.9 °F 55.4 °F 21% 29.76 in 10.0 mi East 4.6 mph - N/A   Clear
2:35 PM 102.2 °F 100.9 °F 55.4 °F 21% 29.75 in 10.0 mi East 8.1 mph - N/A   Clear
2:55 PM 102.2 °F 100.9 °F 55.4 °F 21% 29.74 in 10.0 mi NW 3.5 mph - N/A   Clear
3:15 PM 102.2 °F 100.4 °F 53.6 °F 20% 29.74 in 10.0 mi East 4.6 mph - N/A   Clear
3:35 PM 102.2 °F 100.4 °F 53.6 °F 20% 29.73 in 10.0 mi ESE 11.5 mph - N/A   Clear
3:55 PM 102.2 °F 100.4 °F 53.6 °F 20% 29.73 in 10.0 mi South 5.8 mph - N/A   Clear
4:15 PM 102.2 °F 100.4 °F 53.6 °F 20% 29.72 in 10.0 mi East 4.6 mph - N/A   Clear
4:35 PM 102.2 °F 100.4 °F 53.6 °F 20% 29.72 in 10.0 mi Calm Calm - N/A   Clear
4:55 PM 102.2 °F 100.4 °F 53.6 °F 20% 29.72 in 10.0 mi SE 6.9 mph - N/A   Clear
5:15 PM 102.2 °F 100.4 °F 53.6 °F 20% 29.72 in 10.0 mi Calm Calm - N/A   Clear
5:35 PM 102.2 °F 100.4 °F 53.6 °F 20% 29.72 in 10.0 mi Calm Calm - N/A   Clear
5:55 PM 100.4 °F 98.4 °F 53.6 °F 21% 29.72 in 10.0 mi Calm Calm - N/A   Clear
6:15 PM 100.4 °F 98.4 °F 53.6 °F 21% 29.72 in 10.0 mi NNW 4.6 mph - N/A   Partly Cloudy
6:35 PM 98.6 °F 97.2 °F 55.4 °F 24% 29.72 in 9.0 mi NNW 3.5 mph - N/A   Mostly Cloudy
6:55 PM 96.8 °F 95.1 °F 55.4 °F 25% 29.72 in 10.0 mi North 8.1 mph - N/A   Mostly Cloudy
7:15 PM 96.8 °F 94.4 °F 53.6 °F 23% 29.73 in 10.0 mi North 5.8 mph - N/A   Scattered Clouds
7:35 PM 93.2 °F 91.3 °F 55.4 °F 28% 29.73 in 10.0 mi North 5.8 mph - N/A   Partly Cloudy
7:55 PM 93.2 °F 91.3 °F 55.4 °F 28% 29.74 in 10.0 mi ENE 10.4 mph - N/A   Partly Cloudy
8:15 PM 95.0 °F 93.0 °F 55.4 °F 26% 29.75 in 10.0 mi NE 10.4 mph - N/A   Partly Cloudy
8:35 PM 96.8 °F 95.1 °F 55.4 °F 25% 29.75 in 10.0 mi NE 10.4 mph - N/A   Clear
8:55 PM 95.0 °F 93.0 °F 55.4 °F 26% 29.76 in 10.0 mi ENE 12.7 mph - N/A   Scattered Clouds
9:15 PM 93.2 °F 91.9 °F 57.2 °F 30% 29.76 in 10.0 mi ENE 13.8 mph - N/A   Partly Cloudy
9:35 PM 93.2 °F 91.9 °F 57.2 °F 30% 29.76 in 10.0 mi ENE 11.5 mph - N/A   Clear
9:55 PM 91.4 °F 89.9 °F 57.2 °F 31% 29.76 in 10.0 mi ENE 13.8 mph - N/A   Clear
10:15 PM 91.4 °F 89.9 °F 57.2 °F 31% 29.77 in 10.0 mi ENE 13.8 mph 17.3 mph N/A   Clear
10:35 PM 91.4 °F 89.9 °F 57.2 °F 31% 29.77 in 10.0 mi ENE 13.8 mph - N/A   Scattered Clouds
10:55 PM 91.4 °F 89.9 °F 57.2 °F 31% 29.78 in 10.0 mi ENE 11.5 mph - N/A   Mostly Cloudy
11:15 PM 91.4 °F 89.9 °F 57.2 °F 31% 29.78 in 10.0 mi ENE 13.8 mph - N/A   Partly Cloudy
11:35 PM 89.6 °F 88.1 °F 57.2 °F 33% 29.78 in 10.0 mi ENE 15.0 mph - N/A   Scattered Clouds
11:55 PM 89.6 °F 88.1 °F 57.2 °F 33% 29.78 in 10.0 mi ENE 12.7 mph - N/A   Mostly Cloudy